Ride Results

New Italy (30-07-2016)
Ride distance: 80.0 km

Outcomes - New Italy (30-07-2016)
Division No. of Entries Retired / DNE Completed Withdrawn Ineligible V/O Percentage Completed
HW 18 - 15 2 - 1 83.33%
MW 31 - 25 1 - 5 80.65%
LW 24 - 22 1 - 1 91.67%
JN 13 - 11 - 1 1 84.62%
Totals 86 - 73 4 1 8 84.88%
Results - New Italy (30-07-2016)
No. Rider Horse Place Time Leg Speeds Total
Km/Hr
H/R bpm
Heavyweight
64 Tad Cossins Wollumbin Elle 1 (BC) 4:37:00 19.9, 15.2 17.33 30, 42, 43 (Avg:42)
26 Greg Garred Shannonwood Miss-Me 2 6:01:00 14.9, 11.9 13.30 39, 54, 47 (Avg:50)
41 Maurice Gray Nathan Park Estasans Legacy 3 6:08:00 13.1, 12.9 13.04 37, 51, 51 (Avg:51)
20 Allyson Taylor Zeyna 4 6:15:00 13.2, 12.3 12.80 38, 42, 43 (Avg:42)
65 Max Dewdney Valinor Park Madrass 5 6:24:00 12.0, 12.9 12.50 42, 44, 44 (Avg:44)
37 Shane Butler Ballanbrae Art Nouveau 6 6:41:00 12.9, 11.1 11.97 35, 39, 44 (Avg:41)
38 Troy Butler Cairo's Crystal 6 6:41:00 12.9, 11.1 11.97 34, 48, 46 (Avg:47)
72 Phil Coleman Rainbows Reach Dark N Stormy 8 6:51:00 12.6, 10.8 11.68 39, 44, 44 (Avg:44)
33 Chris Holden True Sensie 9 6:56:00 14.1, 9.7 11.54 38, 44, 54 (Avg:49)
36 Elisa Rout Laughing Alltheway 10 7:52:00 11.7, 8.9 10.17 41, 44, 50 (Avg:47)
3 Andrea Nix Rowallan Rufous 11 7:53:00 10.3, 9.9 10.15 40, 44, 48 (Avg:46)
4 Tami Parnell Zuhra Zaleksii 12 7:54:00 10.9, 9.4 10.13 36, 43, 42 (Avg:42)
70 Liz Terry Ausden Illusion 13 7:55:00 13.1, 8.2 10.11 36, 44, 52 (Avg:48)
27 Jaime Mansbridge Shannonwood Rana 14 8:01:00 11.3, 8.8 9.98 36, 52, 60 (Avg:56)
81 Alan Post Woodbourne Cedar 15 8:09:00 10.4, 9.2 9.82 41, 48, 50 (Avg:49)
9 Len Derkacz Salam Zahbeel Withdrawn L2 0:00:00 - - 36, 41, 46 (Avg:43)
83 Gary Surch Gabri-El El Malek Lame L2 0:00:00 15.2, 10.9 - 35, 50, 59 (Avg:54)
93 Casey Ward-Jones Redford Withdrawn L1 0:00:00 - - 37, 48 (Avg:48)
Middleweight
66 Karen Anderson Malleegrove Samsara 1 4:22:00 19.3, 17.3 18.32 38, 45, 50 (Avg:47)
48 Christopher Schofield Bradali Ice N Rain 2 (BC) 4:25:00 15.9, 20.8 18.11 40, 46, 43 (Avg:44)
46 Debra McQueen Lara's Song 3 4:37:00 17.5, 17.1 17.33 34, 42, 49 (Avg:45)
32 Vicky Shaw Foxridge Elandro 4 4:37:10 18.1, 16.5 17.32 37, 48, 55 (Avg:51)
79 Dean Chamberlain Annordean Balin 5 5:49:00 16.1, 11.9 13.75 34, 43, 52 (Avg:47)
5 Tracey Hutchinson Cherox Merlot 6 5:52:00 15.3, 12.2 13.64 28, 35, 42 (Avg:38)
31 Paul Porter Teandee Eklipse 6 5:52:00 15.3, 12.2 13.64 44, 52, 47 (Avg:49)
21 Sabrina Stephens Cameo Silver Bellz 8 6:00:00 14.4, 12.3 13.33 36, 46, 48 (Avg:47)
86 Fiona Fenech Abberlyn Park Alivia 9 6:15:00 12.7, 12.8 12.80 38, 44, 45 (Avg:44)
55 Barbara Woods Splendacrest Perfection 10 6:24:00 13.1, 11.8 12.50 34, 43, 50 (Avg:46)
73 Michael Combe Nasr 11 6:30:00 12.8, 11.8 12.31 37, 45, 47 (Avg:46)
12 Jane Davidson Natham Park A Dynamite 12 6:37:00 12.4, 11.7 12.09 41, 43, 51 (Avg:47)
54 Simone Krahnen Glen Gannon Serenity 13 6:46:00 12.0, 11.5 11.82 32, 45, 45 (Avg:45)
78 Corey Nix Razorback Blue Rhapsody 14 6:56:00 11.3, 11.7 11.54 36, 41, 51 (Avg:46)
57 Renae Kuhn East-Lynne Sahashi 15 7:04:00 11.9, 10.7 11.32 39, 46, 48 (Avg:47)
50 Joyce Corbett Bellarine Odyssey 16 7:05:00 11.5, 11.0 11.29 35, 42, 46 (Avg:44)
85 Shay Corbett Kaleba Barjuma 16 7:05:00 11.5, 11.0 11.29 33, 46, 54 (Avg:50)
91 Virginia Barber Al Wathba Ellie May 18 7:21:00 12.0, 9.9 10.88 55, 45, 49 (Avg:47)
43 Ellie Hill Wyandra 19 7:24:00 11.9, 9.8 10.81 34, 37, 50 (Avg:43)
6 Karen Lee Chika Canela 20 7:28:00 10.9, 10.4 10.71 41, 48, 49 (Avg:48)
35 Jennifer Annetts Churinga Gulf Dream 21 7:36:00 10.9, 10.1 10.53 28, 38, 58 (Avg:48)
8 Renee Kirk Garnee Full Throttle 22 7:54:00 11.2, 9.1 10.13 46, 50, 56 (Avg:53)
30 David Urquhart Penny EPH 23 7:55:00 10.6, 9.6 10.11 39, 53, 54 (Avg:53)
68 Olga Bartlett Mt Eerwah Anastazia 24 8:08:00 10.3, 9.3 9.84 26, 42, 44 (Avg:43)
67 Lynelle Greenwood Gheerulla Ambition 24 8:08:00 10.3, 9.3 9.84 30, 38, 44 (Avg:41)
49 Cora Becker Undurra Zorro Lame L2 0:00:00 12.6, 10.6 - 46, 44, 43 (Avg:43)
87 Robyn McIntosh-Shoesmith Phoebe Lame L2 0:00:00 12.7, 10.1 - 35, 43, 55 (Avg:49)
2 Derryn Nix Homeleigh Mountain Khalid's Komet Lame L2 0:00:00 10.3, 9.9 - 32, 42, 54 (Avg:48)
82 Judith Burton Woodbourne Chance Withdrawn L1 0:00:00 - - 31, 42 (Avg:42)
89 Lexi Morton Dream Raider Lame L1 0:00:00 14.6 - 40, 45 (Avg:45)
92 Angela Ward Future Dreams Maximus Heart Rate L1 0:00:00 19.9 - 46, 57 (Avg:57)
Lightweight
16 Janelle Taylor Calico Jarkamarn 1 (BC) 4:14:00 19.3, 18.4 18.90 30, 38, 43 (Avg:40)
23 Christal Rizk Poco Lingotte 2 4:29:00 19.3, 16.5 17.84 44, 48, 53 (Avg:50)
7 Christine Christie Sateen 3 4:37:00 18.1, 16.5 17.33 38, 40, 47 (Avg:43)
53 Colleen Krahnen Kalkadoon Viva 4 4:42:00 18.1, 15.9 17.02 38, 41, 43 (Avg:42)
13 Di Kupsch Fortaleza Ascira 5 5:39:00 15.3, 13.1 14.16 32, 44, 46 (Avg:45)
80 Annette Chamberlain Annordean Lady Annette 6 5:49:00 16.1, 11.9 13.75 23, 32, 37 (Avg:34)
22 Mel Jacobs Burralga Barbarian 7 6:00:00 14.4, 12.3 13.33 40, 42, 57 (Avg:49)
19 Janelle Roosen Greywood Magenta 8 6:08:00 13.1, 12.9 13.04 34, 45, 50 (Avg:47)
42 Julie Stenhouse Amarillo Park Khaan 9 6:08:10 13.1, 12.8 13.04 43, 48, 46 (Avg:47)
34 Keiran Sirett Rhythm Dancer 10 6:15:00 12.4, 13.1 12.80 34, 35, 41 (Avg:38)
14 Cathy Ferguson Neswuet Silver Flame 11 6:37:00 12.4, 11.7 12.09 31, 50, 52 (Avg:51)
11 Gabriel Hyland Summervale Storm 11 6:37:00 12.4, 11.7 12.09 35, 43, 46 (Avg:44)
60 Shelley Chapman Cameo Felspar 13 6:38:00 11.9, 12.1 12.06 36, 46, 48 (Avg:47)
61 Tahlia Franke Bellarine Believe 13 6:38:00 11.9, 12.1 12.06 38, 41, 52 (Avg:46)
51 Erin Krahnen Foxylicious 15 6:46:00 12.0, 11.5 11.82 39, 42, 52 (Avg:47)
71 Ros Ryan Rainbows Reach Scout 16 6:51:00 12.6, 10.8 11.68 27, 37, 45 (Avg:41)
84 Bill Ward Al Wathba Lue Spek 17 6:55:00 12.9, 10.4 11.57 42, 48, 57 (Avg:52)
76 Carly Nix Homeleigh Mountain Kosmo 18 6:56:00 11.6, 11.4 11.54 33, 40, 45 (Avg:42)
69 Carolyn Lamb Chesney Eyes of Fire 19 7:09:00 13.1, 9.7 11.19 34, 42, 52 (Avg:47)
90 Ashleigh Grassick Dunbar Caspian 20 7:13:00 11.5, 10.6 11.09 27, 40, 42 (Avg:41)
17 Kim Ruehe Picnic Park Thunder Struck 21 7:21:00 12.0, 9.9 10.88 43, 44, 48 (Avg:46)
28 Xanthe Webb Kewpie Doll te 22 7:55:00 10.6, 9.6 10.11 33, 34, 41 (Avg:37)
10 Malcolm Matters Mango Man Lame L2 0:00:00 11.7, 8.9 - 31, 39, 40 (Avg:39)
77 Chelsea Moore Macrocarpa Scandium Withdrawn L1 0:00:00 - - 44, 43 (Avg:43)
Junior
44 Scarlet McQueen Elfar Krystella 1 (BC) 4:37:00 17.5, 17.1 17.33 32, 42, 46 (Avg:44)
24 Finn Mansbridge Shannonwood Isra 2 6:01:00 14.9, 11.9 13.30 42, 53, 44 (Avg:48)
56 Alissa Woods Bacchante Silver Lace 3 6:24:00 13.1, 11.8 12.50 38, 44, 43 (Avg:43)
74 Kenzie Roberton Maxwell Staccato 4 6:30:00 12.8, 11.8 12.31 40, 48, 44 (Avg:46)
15 Aimee Jeffrey Red Capri 5 6:37:00 12.4, 11.7 12.09 36, 39, 39 (Avg:39)
62 Molly Choyce Box Hill Scout 6 6:38:00 11.9, 12.1 12.06 37, 40, 47 (Avg:43)
52 Connor Krahnen Hyforce Bozeman 7 6:46:00 12.0, 11.5 11.82 34, 41, 50 (Avg:45)
75 Talyn Nix Razorback Sugar N Spice 8 6:56:00 11.3, 11.7 11.54 30, 38, 40 (Avg:39)
58 Jess Kuhn Tigerlilly 9 7:04:00 11.9, 10.7 11.32 40, 42, 42 (Avg:42)
29 Elexis Webb Bahrein Zambique 10 7:55:00 10.6, 9.6 10.11 40, 38, 46 (Avg:42)
25 Hope Mansbridge Shannonwood Cassiopeia 11 8:01:00 11.3, 8.8 9.98 42, 43, 49 (Avg:46)
47 Isabel Foster Briallyn Alimah Gall or injury L2 0:00:00 15.9, 24.7 - 31, 40, 40 (Avg:40)
88 Georgia Morton Shakira BDA Disqualified L2 0:00:00 11.5, 10.6 - 36, 44, 57 (Avg:50)